Gilgit Weather



Gilgit's Current Weather

Temprature 8.35o clear sky

clear sky

Rain: 0 %

Min Temprature8.35o
Max Temprature8.35o
Humidity56
Wind Speed1.52 m/h
Sun Rise05:27:17
Sun Set18:44:13
Current Time: 23-Aug-2019 05:05:30
Lat/Lon: 35.92, 74.31




Gilgit's Geo Location



Gilgit's Weather Forecast

Time Overall Temp Min Temp Max Temp Humidity Wind Speed Rain
23-Aug-2019 (Fri)
08:00:00 clear sky 11.690 11.687 11.690 40 1.69 m/h 0 %
11:00:00 clear sky 15.150 15.150 15.150 27 2.36 m/h 0 %
14:00:00 clear sky 17.030 17.030 17.031 22 3.82 m/h 0 %
17:00:00 clear sky 16.410 16.410 16.411 29 4.8 m/h 0 %
20:00:00 clear sky 13.150 13.150 13.150 44 2.26 m/h 0 %
23:00:00 clear sky 10.842 10.842 10.842 56 2.75 m/h 0 %
24-Aug-2019 (Sat)
02:00:00 few clouds 9.531 9.531 9.531 58 2.01 m/h 0 %
05:00:00 few clouds 8.255 8.255 8.255 61 1.6 m/h 0 %
08:00:00 clear sky 11.117 11.117 11.117 48 0.58 m/h 0 %
11:00:00 clear sky 14.869 14.869 14.869 34 1.81 m/h 0 %
14:00:00 broken clouds 16.869 16.869 16.869 23 3.85 m/h 0 %
17:00:00 scattered clouds 16.223 16.223 16.223 28 3.99 m/h 0 %
20:00:00 clear sky 13.450 13.450 13.450 34 2.48 m/h 0 %
23:00:00 clear sky 11.269 11.269 11.269 49 2.75 m/h 0 %
25-Aug-2019 (Sun)
02:00:00 scattered clouds 9.731 9.731 9.731 57 2.38 m/h 0 %
05:00:00 scattered clouds 8.257 8.257 8.257 63 1.65 m/h 0 %
08:00:00 clear sky 11.314 11.314 11.314 47 1.28 m/h 0 %
11:00:00 clear sky 14.616 14.616 14.616 35 1.65 m/h 0 %
14:00:00 broken clouds 16.150 16.150 16.150 33 1.02 m/h 0 %
17:00:00 broken clouds 16.650 16.650 16.650 30 0.88 m/h 0 %
20:00:00 broken clouds 14.581 14.581 14.581 34 1.92 m/h 0 %
23:00:00 broken clouds 12.711 12.711 12.711 40 2.06 m/h 0 %
26-Aug-2019 (Mon)
02:00:00 clear sky 11.265 11.265 11.265 47 2.07 m/h 0 %
05:00:00 clear sky 9.850 9.850 9.850 54 1.29 m/h 0 %
08:00:00 clear sky 12.767 12.767 12.767 43 1.71 m/h 0 %
11:00:00 clear sky 16.172 16.172 16.172 36 2.61 m/h 0 %
14:00:00 broken clouds 18.084 18.084 18.084 31 2.15 m/h 0 %
17:00:00 broken clouds 17.520 17.520 17.520 31 5.61 m/h 0 %
20:00:00 scattered clouds 13.872 13.872 13.872 51 4.08 m/h 0 %
23:00:00 scattered clouds 11.114 11.114 11.114 63 3.11 m/h 0 %
27-Aug-2019 (Tue)
02:00:00 clear sky 10.116 10.116 10.116 64 2.16 m/h 0 %
05:00:00 clear sky 9.050 9.050 9.050 67 1.51 m/h 0 %
08:00:00 clear sky 12.035 12.035 12.035 54 0.97 m/h 0 %
11:00:00 clear sky 16.136 16.136 16.136 39 1.68 m/h 0 %
14:00:00 scattered clouds 18.936 18.936 18.936 24 3.26 m/h 0 %
17:00:00 few clouds 18.265 18.265 18.265 26 3.96 m/h 0 %
20:00:00 clear sky 14.850 14.850 14.850 42 2.63 m/h 0 %
23:00:00 clear sky 12.150 12.150 12.150 56 2.96 m/h 0 %
28-Aug-2019 (Wed)
02:00:00 clear sky 10.957 10.957 10.957 61 2.27 m/h 0 %
05:00:00 few clouds 10.872 10.872 10.872 61 1.56 m/h 0 %

Famous Cities (61)